createdAt,value
2023-02-08T00:03:36.272Z,100.00
2023-02-08T00:06:23.392Z,100.00
2023-02-08T00:09:10.516Z,100.00
2023-02-08T00:11:57.533Z,100.00
2023-02-08T00:14:44.703Z,100.00
2023-02-08T00:17:32.336Z,100.00
2023-02-08T00:20:19.624Z,100.00
2023-02-08T00:23:06.858Z,100.00
2023-02-08T00:25:54.013Z,100.00
2023-02-08T00:28:41.098Z,100.00
2023-02-08T00:31:29.556Z,100.00
2023-02-08T00:34:16.644Z,100.00
2023-02-08T00:37:03.731Z,100.00
2023-02-08T00:39:50.765Z,100.00
2023-02-08T00:42:37.879Z,100.00
2023-02-08T00:45:25.068Z,100.00
2023-02-08T00:48:12.156Z,100.00
2023-02-08T00:51:09.618Z,100.00
2023-02-08T00:53:56.661Z,100.00
2023-02-08T00:56:44.497Z,100.00
2023-02-08T00:59:31.578Z,100.00
2023-02-08T01:02:18.825Z,100.00
2023-02-08T01:05:06.613Z,100.00
2023-02-08T01:07:53.749Z,100.00
2023-02-08T01:10:41.627Z,100.00
2023-02-08T01:13:28.873Z,100.00
2023-02-08T01:16:20.711Z,100.00
2023-02-08T01:19:07.926Z,100.00
2023-02-08T01:21:55.163Z,100.00
2023-02-08T01:24:42.297Z,100.00
2023-02-08T01:27:29.343Z,100.00
2023-02-08T01:30:17.688Z,100.00
2023-02-08T01:33:04.782Z,100.00
2023-02-08T01:35:53.021Z,100.00
2023-02-08T01:38:40.195Z,100.00
2023-02-08T01:41:33.873Z,100.00
2023-02-08T01:45:06.048Z,100.00
2023-02-08T01:47:58.705Z,100.00
2023-02-08T01:51:20.621Z,100.00
2023-02-08T01:54:10.383Z,100.00
2023-02-08T01:56:57.674Z,100.00
2023-02-08T01:59:53.423Z,100.00
2023-02-08T02:02:41.958Z,100.00
2023-02-08T02:05:35.544Z,100.00
2023-02-08T02:08:22.762Z,100.00
2023-02-08T02:11:09.900Z,100.00
2023-02-08T02:13:58.391Z,100.00
2023-02-08T02:16:45.601Z,100.00
2023-02-08T02:20:08.110Z,100.00
2023-02-08T02:23:25.416Z,100.00
2023-02-08T02:26:40.106Z,100.00
2023-02-08T02:29:58.125Z,100.00
2023-02-08T02:32:55.636Z,100.00
2023-02-08T02:36:01.124Z,100.00
2023-02-08T02:39:15.740Z,100.00
2023-02-08T02:42:47.999Z,100.00
2023-02-08T02:46:19.922Z,100.00
2023-02-08T02:49:12.754Z,100.00
2023-02-08T02:52:06.141Z,100.00
2023-02-08T02:54:56.143Z,100.00
2023-02-08T02:57:47.185Z,100.00
2023-02-08T03:00:34.512Z,100.00
2023-02-08T03:03:25.362Z,100.00
2023-02-08T03:06:25.605Z,100.00
2023-02-08T03:09:12.615Z,100.00
2023-02-08T03:12:12.175Z,100.00
2023-02-08T03:15:35.561Z,100.00
2023-02-08T03:18:52.556Z,100.00
2023-02-08T03:21:55.503Z,100.00
2023-02-08T03:25:03.396Z,100.00
2023-02-08T03:28:01.958Z,100.00
2023-02-08T03:31:18.947Z,100.00
2023-02-08T03:34:13.268Z,100.00
2023-02-08T03:37:10.306Z,100.00
2023-02-08T03:40:06.633Z,100.00
2023-02-08T03:42:57.040Z,100.00
2023-02-08T03:45:50.264Z,100.00
2023-02-08T03:48:40.862Z,100.00
2023-02-08T03:51:30.337Z,100.00
2023-02-08T03:54:24.492Z,100.00
2023-02-08T03:57:18.705Z,100.00
2023-02-08T04:00:14.621Z,100.00
2023-02-08T04:03:26.226Z,100.00
2023-02-08T04:06:13.505Z,100.00
2023-02-08T04:09:01.633Z,100.00
2023-02-08T04:11:48.733Z,100.00
2023-02-08T04:14:35.795Z,100.00
2023-02-08T04:17:22.868Z,100.00
2023-02-08T04:20:10.673Z,100.00
2023-02-08T04:22:57.781Z,100.00
2023-02-08T04:25:44.920Z,100.00
2023-02-08T04:28:32.009Z,100.00
2023-02-08T04:31:19.196Z,100.00
2023-02-08T04:34:06.364Z,100.00
2023-02-08T04:36:53.571Z,100.00
2023-02-08T04:39:40.622Z,100.00
2023-02-08T04:42:28.093Z,100.00
2023-02-08T04:45:15.253Z,100.00
2023-02-08T04:48:02.453Z,100.00
2023-02-08T04:50:49.547Z,100.00
2023-02-08T04:53:36.622Z,100.00
2023-02-08T04:56:23.762Z,100.00
2023-02-08T04:59:10.861Z,100.00
2023-02-08T05:01:58.048Z,100.00
2023-02-08T05:04:45.237Z,100.00
2023-02-08T05:07:33.382Z,100.00
2023-02-08T05:10:20.557Z,100.00
2023-02-08T05:13:07.795Z,100.00
2023-02-08T05:15:54.887Z,100.00
2023-02-08T05:18:42.128Z,100.00
2023-02-08T05:21:30.420Z,100.00
2023-02-08T05:24:17.645Z,100.00
2023-02-08T05:27:04.702Z,100.00
2023-02-08T05:29:51.814Z,100.00
2023-02-08T05:32:38.928Z,100.00
2023-02-08T05:35:25.970Z,100.00
2023-02-08T05:38:13.009Z,100.00
2023-02-08T05:41:00.074Z,100.00
2023-02-08T05:43:47.146Z,100.00
2023-02-08T05:46:35.463Z,100.00
2023-02-08T05:49:24.310Z,100.00
2023-02-08T05:52:11.500Z,100.00
2023-02-08T05:54:58.509Z,100.00
2023-02-08T05:57:45.568Z,100.00
2023-02-08T06:00:32.619Z,100.00
2023-02-08T06:03:19.739Z,100.00
2023-02-08T06:06:07.968Z,100.00
2023-02-08T06:08:55.027Z,100.00
2023-02-08T06:11:42.066Z,100.00
2023-02-08T06:14:29.091Z,100.00
2023-02-08T06:17:16.132Z,100.00
2023-02-08T06:20:03.434Z,100.00
2023-02-08T06:22:50.647Z,100.00
2023-02-08T06:25:37.904Z,100.00
2023-02-08T06:28:25.093Z,100.00
2023-02-08T06:31:12.217Z,100.00
2023-02-08T06:33:59.273Z,100.00
2023-02-08T06:36:46.508Z,100.00
2023-02-08T06:39:33.623Z,100.00
2023-02-08T06:42:20.675Z,100.00
2023-02-08T06:45:11.022Z,100.00
2023-02-08T06:47:59.314Z,100.00
2023-02-08T06:50:46.343Z,100.00
2023-02-08T06:53:33.428Z,100.00
2023-02-08T06:56:20.542Z,100.00
2023-02-08T06:59:07.631Z,100.00
2023-02-08T07:01:54.687Z,100.00
2023-02-08T07:04:41.936Z,100.00
2023-02-08T07:07:29.105Z,100.00
2023-02-08T07:10:16.779Z,100.00
2023-02-08T07:13:04.114Z,100.00
2023-02-08T07:15:51.146Z,100.00
2023-02-08T07:18:38.246Z,100.00
2023-02-08T07:21:25.363Z,100.00
2023-02-08T07:24:12.360Z,100.00
2023-02-08T07:26:59.375Z,100.00
2023-02-08T07:29:46.440Z,100.00
2023-02-08T07:32:34.833Z,100.00
2023-02-08T07:35:22.106Z,100.00
2023-02-08T07:38:10.269Z,100.00
2023-02-08T07:41:08.482Z,100.00
2023-02-08T07:43:55.564Z,100.00
2023-02-08T07:46:42.659Z,100.00
2023-02-08T07:49:30.413Z,100.00
2023-02-08T07:52:17.420Z,100.00
2023-02-08T07:55:04.639Z,100.00
2023-02-08T07:57:51.750Z,100.00
2023-02-08T08:00:39.023Z,100.00
2023-02-08T08:03:26.254Z,100.00
2023-02-08T08:06:13.414Z,100.00
2023-02-08T08:09:00.576Z,100.00
2023-02-08T08:11:47.663Z,100.00
2023-02-08T08:14:34.659Z,100.00
2023-02-08T08:17:21.831Z,100.00
2023-02-08T08:20:11.107Z,100.00
2023-02-08T08:22:58.318Z,100.00
2023-02-08T08:25:45.387Z,100.00
2023-02-08T08:28:32.629Z,100.00
2023-02-08T08:31:22.002Z,100.00
2023-02-08T08:34:09.220Z,100.00
2023-02-08T08:37:01.708Z,100.00
2023-02-08T08:39:49.917Z,100.00
2023-02-08T08:42:39.859Z,100.00
2023-02-08T08:45:27.114Z,100.00
2023-02-08T08:48:14.178Z,100.00
2023-02-08T08:51:01.370Z,100.00
2023-02-08T08:53:48.467Z,100.00
2023-02-08T08:56:35.573Z,100.00
2023-02-08T08:59:22.749Z,100.00
2023-02-08T09:02:13.664Z,100.00
2023-02-08T09:05:00.692Z,100.00
2023-02-08T09:07:47.754Z,100.00
2023-02-08T09:10:34.818Z,100.00
2023-02-08T09:13:22.037Z,100.00
2023-02-08T09:16:13.132Z,100.00
2023-02-08T09:19:08.396Z,100.00
2023-02-08T09:21:55.527Z,100.00
2023-02-08T09:24:42.668Z,100.00
2023-02-08T09:27:29.908Z,100.00
2023-02-08T09:30:17.051Z,100.00
2023-02-08T09:33:04.163Z,100.00
2023-02-08T09:35:51.207Z,98.90
2023-02-08T09:38:38.908Z,97.81
2023-02-08T09:41:44.433Z,93.51
2023-02-08T09:44:40.121Z,86.93
2023-02-08T09:47:34.314Z,87.09
2023-02-08T09:50:44.788Z,86.11
2023-02-08T09:53:40.513Z,84.58
2023-02-08T09:56:36.440Z,83.27
2023-02-08T09:59:29.608Z,80.66
2023-02-08T10:02:30.150Z,81.32
2023-02-08T10:05:22.427Z,80.05
2023-02-08T10:08:11.891Z,78.79
2023-02-08T10:11:01.999Z,79.56
2023-02-08T10:14:07.797Z,78.79
2023-02-08T10:17:21.201Z,75.51
2023-02-08T10:20:22.932Z,74.06
2023-02-08T10:23:21.931Z,75.09
2023-02-08T10:26:40.442Z,75.12
2023-02-08T10:29:35.830Z,75.82
2023-02-08T10:33:12.930Z,77.09
2023-02-08T10:36:00.058Z,77.06
2023-02-08T10:38:51.732Z,76.01
2023-02-08T10:41:39.049Z,74.61
2023-02-08T10:45:24.253Z,75.33
2023-02-08T10:48:20.111Z,72.58
2023-02-08T10:51:12.540Z,74.73
2023-02-08T10:53:59.804Z,72.21
2023-02-08T10:56:58.315Z,74.34
2023-02-08T10:59:56.507Z,77.34
2023-02-08T11:02:44.011Z,77.05
2023-02-08T11:05:38.750Z,77.97
2023-02-08T11:08:27.904Z,76.56
2023-02-08T11:11:15.529Z,75.77
2023-02-08T11:14:16.365Z,77.63
2023-02-08T11:17:03.500Z,78.92
2023-02-08T11:19:50.997Z,76.98
2023-02-08T11:22:38.166Z,77.73
2023-02-08T11:25:38.904Z,77.96
2023-02-08T11:28:31.200Z,77.31
2023-02-08T11:31:21.116Z,74.66
2023-02-08T11:34:11.525Z,77.02
2023-02-08T11:37:02.575Z,76.26
2023-02-08T11:39:58.530Z,76.13
2023-02-08T11:42:47.201Z,74.57
2023-02-08T11:45:36.229Z,75.39
2023-02-08T11:48:51.444Z,72.89
2023-02-08T11:51:39.564Z,70.53
2023-02-08T11:54:41.492Z,70.03
2023-02-08T11:57:28.590Z,72.84
2023-02-08T12:00:27.646Z,72.55
2023-02-08T12:03:18.718Z,72.17
2023-02-08T12:06:17.744Z,72.97
2023-02-08T12:09:40.294Z,71.02
2023-02-08T12:12:46.024Z,69.18
2023-02-08T12:16:06.501Z,71.76
2023-02-08T12:19:12.242Z,73.38
2023-02-08T12:22:04.379Z,73.25
2023-02-08T12:24:59.609Z,74.20
2023-02-08T12:28:12.995Z,72.56
2023-02-08T12:31:41.900Z,72.52
2023-02-08T12:34:43.927Z,74.25
2023-02-08T12:38:13.047Z,73.08
2023-02-08T12:41:12.138Z,72.05
2023-02-08T12:44:09.347Z,73.18
2023-02-08T12:47:30.412Z,71.69
2023-02-08T12:50:41.879Z,70.79
2023-02-08T12:53:39.870Z,71.16
2023-02-08T12:56:40.584Z,70.76
2023-02-08T12:59:40.635Z,71.92
2023-02-08T13:02:59.792Z,70.32
2023-02-08T13:06:01.607Z,70.37
2023-02-08T13:09:04.117Z,70.38
2023-02-08T13:12:06.747Z,69.83
2023-02-08T13:15:28.391Z,69.67
2023-02-08T13:18:35.494Z,70.58
2023-02-08T13:21:32.619Z,69.08
2023-02-08T13:24:27.845Z,69.42
2023-02-08T13:27:21.358Z,69.28
2023-02-08T13:30:19.855Z,69.79
2023-02-08T13:33:28.973Z,68.18
2023-02-08T13:36:33.468Z,68.50
2023-02-08T13:39:46.448Z,67.85
2023-02-08T13:42:49.159Z,67.88
2023-02-08T13:45:45.443Z,67.67
2023-02-08T13:48:48.208Z,68.22
2023-02-08T13:51:35.238Z,67.16
2023-02-08T13:54:23.276Z,66.93
2023-02-08T13:57:55.870Z,66.09
2023-02-08T14:00:55.171Z,65.97
2023-02-08T14:03:42.399Z,65.67
2023-02-08T14:06:31.104Z,64.20
2023-02-08T14:09:24.765Z,64.33
2023-02-08T14:12:49.946Z,64.44
2023-02-08T14:15:40.003Z,63.34
2023-02-08T14:18:28.940Z,62.67
2023-02-08T14:21:36.576Z,63.25
2023-02-08T14:24:26.601Z,62.36
2023-02-08T14:27:41.142Z,61.00
2023-02-08T14:30:31.972Z,59.34
2023-02-08T14:33:25.396Z,61.95
2023-02-08T14:36:30.900Z,60.92
2023-02-08T14:39:26.439Z,60.10
2023-02-08T14:42:14.493Z,59.68
2023-02-08T14:45:02.720Z,59.58
2023-02-08T14:47:55.741Z,58.78
2023-02-08T14:50:52.322Z,58.82
2023-02-08T14:53:42.282Z,60.18
2023-02-08T14:56:33.731Z,62.78
2023-02-08T14:59:25.569Z,63.50
2023-02-08T15:02:20.454Z,63.94
2023-02-08T15:05:10.703Z,64.52
2023-02-08T15:07:58.442Z,65.08
2023-02-08T15:10:46.132Z,65.81
2023-02-08T15:13:35.339Z,67.55
2023-02-08T15:16:48.753Z,66.67
2023-02-08T15:19:43.316Z,67.82
2023-02-08T15:22:34.953Z,68.90
2023-02-08T15:25:26.880Z,70.01
2023-02-08T15:28:22.052Z,69.52
2023-02-08T15:31:14.644Z,69.74
2023-02-08T15:34:04.241Z,70.35
2023-02-08T15:36:54.168Z,70.85
2023-02-08T15:39:41.567Z,71.77
2023-02-08T15:42:33.863Z,72.45
2023-02-08T15:45:26.974Z,72.21
2023-02-08T15:48:14.332Z,72.94
2023-02-08T15:51:02.978Z,73.87
2023-02-08T15:53:55.822Z,75.58
2023-02-08T15:56:50.371Z,76.98
2023-02-08T15:59:40.225Z,76.18
2023-02-08T16:02:31.252Z,78.36
2023-02-08T16:05:22.169Z,77.26
2023-02-08T16:08:22.292Z,79.32
2023-02-08T16:11:21.245Z,79.87
2023-02-08T16:14:08.508Z,81.56
2023-02-08T16:16:58.537Z,80.65
2023-02-08T16:19:51.495Z,80.01
2023-02-08T16:22:39.124Z,81.52
2023-02-08T16:25:46.021Z,82.44
2023-02-08T16:28:43.268Z,83.12
2023-02-08T16:31:33.040Z,82.89
2023-02-08T16:34:22.935Z,82.80
2023-02-08T16:37:25.937Z,84.03
2023-02-08T16:40:38.385Z,85.86
2023-02-08T16:43:25.782Z,86.56
2023-02-08T16:46:19.297Z,86.08
2023-02-08T16:49:10.330Z,86.45
2023-02-08T16:52:00.798Z,88.29
2023-02-08T16:54:47.904Z,88.62
2023-02-08T16:57:46.095Z,87.32
2023-02-08T17:00:35.665Z,89.47
2023-02-08T17:03:22.954Z,89.14
2023-02-08T17:06:31.783Z,89.44
2023-02-08T17:09:19.857Z,91.09
2023-02-08T17:12:21.734Z,89.68
2023-02-08T17:15:10.309Z,90.33
2023-02-08T17:17:58.005Z,92.59
2023-02-08T17:20:45.839Z,91.95
2023-02-08T17:23:34.678Z,93.01
2023-02-08T17:26:48.419Z,93.18
2023-02-08T17:29:35.997Z,94.05
2023-02-08T17:32:23.605Z,95.27
2023-02-08T17:35:15.850Z,95.78
2023-02-08T17:38:04.449Z,95.14
2023-02-08T17:40:51.999Z,96.44
2023-02-08T17:43:39.824Z,95.76
2023-02-08T17:46:30.804Z,97.51
2023-02-08T17:49:18.328Z,97.18
2023-02-08T17:52:07.166Z,98.70
2023-02-08T17:54:55.238Z,97.68
2023-02-08T17:57:44.250Z,98.56
2023-02-08T18:00:33.273Z,99.97
2023-02-08T18:03:22.279Z,100.00
2023-02-08T18:06:10.090Z,99.13
2023-02-08T18:08:58.140Z,99.96
2023-02-08T18:11:46.150Z,100.00
2023-02-08T18:14:34.285Z,99.46
2023-02-08T18:17:22.763Z,99.84
2023-02-08T18:20:16.767Z,100.00
2023-02-08T18:23:04.321Z,100.00
2023-02-08T18:25:52.612Z,100.00
2023-02-08T18:28:43.912Z,100.00
2023-02-08T18:31:34.158Z,100.00
2023-02-08T18:34:21.962Z,100.00
2023-02-08T18:37:10.518Z,100.00
2023-02-08T18:39:58.492Z,100.00
2023-02-08T18:42:46.775Z,100.00
2023-02-08T18:45:34.799Z,100.00
2023-02-08T18:48:22.896Z,100.00
2023-02-08T18:51:11.853Z,100.00
2023-02-08T18:54:00.377Z,100.00
2023-02-08T18:56:52.870Z,100.00
2023-02-08T18:59:42.005Z,100.00
2023-02-08T19:02:31.973Z,100.00
2023-02-08T19:05:20.182Z,100.00
2023-02-08T19:08:08.015Z,100.00
2023-02-08T19:10:55.883Z,100.00
2023-02-08T19:13:44.896Z,100.00
2023-02-08T19:16:37.792Z,100.00
2023-02-08T19:19:26.175Z,100.00
2023-02-08T19:22:17.048Z,100.00
2023-02-08T19:25:04.842Z,100.00
2023-02-08T19:27:53.431Z,100.00
2023-02-08T19:30:41.560Z,100.00
2023-02-08T19:33:30.404Z,100.00
2023-02-08T19:36:22.749Z,100.00
2023-02-08T19:39:15.679Z,100.00
2023-02-08T19:42:03.946Z,100.00
2023-02-08T19:44:52.191Z,100.00
2023-02-08T19:47:50.943Z,100.00
2023-02-08T19:50:39.602Z,100.00
2023-02-08T19:53:29.312Z,100.00
2023-02-08T19:56:22.549Z,100.00
2023-02-08T19:59:20.162Z,100.00
2023-02-08T20:02:11.668Z,100.00
2023-02-08T20:04:59.685Z,100.00
2023-02-08T20:07:47.637Z,100.00
2023-02-08T20:10:42.749Z,100.00
2023-02-08T20:13:32.275Z,100.00
2023-02-08T20:16:22.470Z,100.00
2023-02-08T20:19:12.945Z,100.00
2023-02-08T20:22:01.621Z,100.00
2023-02-08T20:24:51.170Z,100.00
2023-02-08T20:27:38.966Z,100.00
2023-02-08T20:30:27.442Z,100.00
2023-02-08T20:33:16.094Z,100.00
2023-02-08T20:36:10.259Z,100.00
2023-02-08T20:39:01.705Z,100.00
2023-02-08T20:41:49.642Z,100.00
2023-02-08T20:44:37.620Z,100.00
2023-02-08T20:47:27.439Z,100.00
2023-02-08T20:50:27.004Z,100.00
2023-02-08T20:53:15.180Z,100.00
2023-02-08T20:56:19.512Z,100.00
2023-02-08T20:59:16.684Z,100.00
2023-02-08T21:02:08.364Z,100.00
2023-02-08T21:05:00.785Z,100.00
2023-02-08T21:07:49.334Z,100.00
2023-02-08T21:10:37.269Z,100.00
2023-02-08T21:13:24.703Z,100.00
2023-02-08T21:16:14.722Z,100.00
2023-02-08T21:19:02.486Z,100.00
2023-02-08T21:21:53.376Z,100.00
2023-02-08T21:24:40.650Z,100.00
2023-02-08T21:27:27.969Z,100.00
2023-02-08T21:30:15.257Z,100.00
2023-02-08T21:33:05.713Z,100.00
2023-02-08T21:35:54.778Z,100.00
2023-02-08T21:38:43.504Z,100.00
2023-02-08T21:41:33.486Z,100.00
2023-02-08T21:44:21.072Z,100.00
2023-02-08T21:47:08.354Z,100.00
2023-02-08T21:50:14.509Z,100.00
2023-02-08T21:53:29.237Z,100.00
2023-02-08T21:56:16.434Z,100.00
2023-02-08T21:59:03.512Z,100.00
2023-02-08T22:01:50.590Z,100.00
2023-02-08T22:04:57.398Z,100.00
2023-02-08T22:07:50.506Z,100.00
2023-02-08T22:10:39.444Z,100.00
2023-02-08T22:13:28.045Z,100.00
2023-02-08T22:16:17.316Z,100.00
2023-02-08T22:19:06.137Z,100.00
2023-02-08T22:21:53.203Z,100.00
2023-02-08T22:24:40.399Z,100.00
2023-02-08T22:27:27.916Z,100.00
2023-02-08T22:30:18.622Z,100.00
2023-02-08T22:33:05.780Z,100.00
2023-02-08T22:35:56.770Z,100.00
2023-02-08T22:38:52.619Z,100.00
2023-02-08T22:41:39.667Z,100.00
2023-02-08T22:44:26.687Z,100.00
2023-02-08T22:47:14.375Z,100.00
2023-02-08T22:50:01.712Z,100.00
2023-02-08T22:52:48.990Z,100.00
2023-02-08T22:55:36.011Z,100.00
2023-02-08T22:58:24.917Z,100.00
2023-02-08T23:01:17.189Z,100.00
2023-02-08T23:04:04.564Z,100.00
2023-02-08T23:06:51.633Z,100.00
2023-02-08T23:09:38.815Z,100.00
2023-02-08T23:12:26.084Z,100.00
2023-02-08T23:15:13.321Z,100.00
2023-02-08T23:18:00.487Z,100.00
2023-02-08T23:20:47.797Z,100.00
2023-02-08T23:23:34.922Z,100.00
2023-02-08T23:26:22.501Z,100.00
2023-02-08T23:29:09.640Z,100.00
2023-02-08T23:31:56.693Z,100.00
2023-02-08T23:34:44.116Z,100.00
2023-02-08T23:37:34.225Z,100.00
2023-02-08T23:40:21.669Z,100.00
2023-02-08T23:43:09.077Z,100.00
2023-02-08T23:45:56.451Z,100.00
2023-02-08T23:48:44.936Z,100.00
2023-02-08T23:51:25.425Z,100.00
2023-02-08T23:54:03.679Z,100.00
2023-02-08T23:56:43.670Z,100.00
2023-02-08T23:59:23.694Z,100.00
